createdAt,value
2022-12-07T00:01:22.067Z,6.50
2022-12-07T00:03:51.727Z,6.23
2022-12-07T00:06:20.638Z,7.00
2022-12-07T00:08:49.317Z,7.57
2022-12-07T00:11:20.893Z,7.13
2022-12-07T00:13:48.987Z,6.50
2022-12-07T00:16:18.797Z,6.93
2022-12-07T00:18:47.831Z,7.00
2022-12-07T00:21:17.468Z,7.43
2022-12-07T00:23:47.072Z,7.53
2022-12-07T00:26:16.844Z,7.30
2022-12-07T00:28:49.068Z,7.70
2022-12-07T00:31:18.854Z,7.37
2022-12-07T00:33:47.428Z,8.50
2022-12-07T00:36:23.168Z,7.37
2022-12-07T00:38:55.007Z,8.27
2022-12-07T00:41:24.905Z,7.87
2022-12-07T00:43:54.702Z,7.70
2022-12-07T00:46:23.562Z,8.00
2022-12-07T00:48:52.785Z,7.73
2022-12-07T00:51:23.099Z,8.37
2022-12-07T00:53:52.566Z,8.20
2022-12-07T00:56:22.680Z,8.20
2022-12-07T00:58:57.596Z,9.40
2022-12-07T01:01:27.276Z,8.90
2022-12-07T01:03:55.691Z,7.00
2022-12-07T01:06:25.363Z,8.47
2022-12-07T01:08:53.719Z,8.27
2022-12-07T01:11:23.805Z,8.47
2022-12-07T01:13:52.720Z,8.60
2022-12-07T01:16:23.383Z,7.60
2022-12-07T01:18:52.846Z,7.77
2022-12-07T01:21:22.664Z,8.70
2022-12-07T01:23:50.871Z,7.17
2022-12-07T01:26:21.030Z,8.77
2022-12-07T01:28:49.633Z,7.90
2022-12-07T01:31:20.119Z,8.30
2022-12-07T01:33:52.894Z,7.93
2022-12-07T01:36:22.936Z,8.40
2022-12-07T01:38:53.743Z,8.60
2022-12-07T01:41:22.923Z,9.00
2022-12-07T01:44:13.322Z,7.83
2022-12-07T01:46:42.544Z,9.40
2022-12-07T01:49:15.448Z,8.80
2022-12-07T01:51:45.366Z,8.67
2022-12-07T01:54:15.857Z,9.30
2022-12-07T01:56:49.931Z,8.30
2022-12-07T01:59:19.822Z,8.73
2022-12-07T02:01:48.016Z,9.83
2022-12-07T02:04:17.586Z,9.30
2022-12-07T02:06:46.630Z,8.80
2022-12-07T02:09:14.790Z,9.07
2022-12-07T02:11:43.336Z,9.40
2022-12-07T02:14:11.344Z,9.07
2022-12-07T02:16:52.088Z,8.13
2022-12-07T02:20:02.282Z,8.93
2022-12-07T02:23:05.439Z,9.17
2022-12-07T02:25:49.422Z,10.23
2022-12-07T02:28:28.581Z,8.00
2022-12-07T02:31:04.482Z,9.10
2022-12-07T02:33:37.805Z,8.57
2022-12-07T02:36:11.502Z,8.80
2022-12-07T02:38:45.556Z,8.80
2022-12-07T02:41:18.150Z,8.80
2022-12-07T02:43:53.050Z,8.40
2022-12-07T02:46:26.702Z,8.63
2022-12-07T02:48:56.680Z,8.70
2022-12-07T02:51:24.718Z,8.17
2022-12-07T02:53:52.774Z,8.93
2022-12-07T02:56:28.820Z,9.63
2022-12-07T02:59:08.640Z,8.13
2022-12-07T03:01:47.161Z,8.80
2022-12-07T03:04:27.692Z,8.33
2022-12-07T03:07:02.279Z,7.60
2022-12-07T03:09:35.981Z,7.30
2022-12-07T03:12:11.602Z,8.27
2022-12-07T03:14:45.648Z,8.17
2022-12-07T03:17:18.676Z,7.43
2022-12-07T03:19:48.771Z,8.03
2022-12-07T03:22:18.328Z,7.23
2022-12-07T03:24:53.263Z,7.87
2022-12-07T03:27:24.106Z,8.20
2022-12-07T03:29:56.195Z,7.73
2022-12-07T03:32:31.700Z,7.50
2022-12-07T03:35:05.866Z,8.20
2022-12-07T03:37:38.619Z,9.10
2022-12-07T03:40:13.779Z,9.50
2022-12-07T03:42:42.398Z,9.07
2022-12-07T03:45:11.967Z,8.20
2022-12-07T03:47:48.994Z,8.97
2022-12-07T03:50:23.769Z,8.27
2022-12-07T03:52:58.586Z,7.90
2022-12-07T03:55:30.035Z,7.60
2022-12-07T03:58:01.944Z,7.97
2022-12-07T04:00:31.155Z,7.70
2022-12-07T04:03:00.622Z,7.20
2022-12-07T04:05:28.856Z,8.80
2022-12-07T04:07:57.081Z,7.67
2022-12-07T04:10:25.161Z,8.30
2022-12-07T04:12:53.237Z,8.00
2022-12-07T04:15:21.223Z,7.77
2022-12-07T04:17:49.244Z,9.00
2022-12-07T04:20:18.806Z,8.37
2022-12-07T04:22:47.041Z,8.30
2022-12-07T04:25:15.095Z,8.17
2022-12-07T04:27:43.108Z,8.60
2022-12-07T04:30:11.835Z,8.70
2022-12-07T04:32:39.852Z,8.50
2022-12-07T04:35:08.688Z,8.60
2022-12-07T04:37:40.086Z,7.37
2022-12-07T04:40:12.034Z,6.40
2022-12-07T04:42:40.092Z,5.37
2022-12-07T04:45:09.378Z,5.00
2022-12-07T04:47:37.443Z,4.53
2022-12-07T04:50:06.678Z,5.03
2022-12-07T04:52:34.731Z,6.77
2022-12-07T04:55:04.216Z,4.60
2022-12-07T04:57:32.209Z,5.10
2022-12-07T05:00:00.604Z,4.13
2022-12-07T05:02:28.939Z,4.87
2022-12-07T05:04:56.951Z,4.87
2022-12-07T05:07:24.927Z,5.43
2022-12-07T05:09:52.850Z,4.03
2022-12-07T05:12:22.140Z,4.10
2022-12-07T05:14:50.090Z,4.40
2022-12-07T05:17:18.129Z,4.20
2022-12-07T05:19:46.152Z,3.87
2022-12-07T05:22:15.105Z,3.93
2022-12-07T05:24:43.126Z,3.87
2022-12-07T05:27:11.117Z,4.80
2022-12-07T05:29:40.459Z,4.33
2022-12-07T05:32:08.466Z,4.67
2022-12-07T05:34:36.482Z,4.40
2022-12-07T05:37:04.510Z,4.10
2022-12-07T05:39:32.466Z,4.07
2022-12-07T05:42:15.758Z,4.50
2022-12-07T05:44:46.915Z,5.23
2022-12-07T05:47:16.257Z,5.63
2022-12-07T05:49:44.225Z,5.90
2022-12-07T05:52:12.181Z,6.20
2022-12-07T05:54:40.164Z,5.70
2022-12-07T05:57:08.231Z,6.00
2022-12-07T05:59:35.278Z,6.00
2022-12-07T06:02:07.145Z,6.30
2022-12-07T06:04:40.878Z,6.27
2022-12-07T06:07:10.451Z,5.93
2022-12-07T06:09:38.558Z,5.87
2022-12-07T06:12:25.456Z,5.70
2022-12-07T06:14:53.481Z,7.23
2022-12-07T06:17:22.832Z,6.00
2022-12-07T06:19:51.112Z,6.20
2022-12-07T06:22:19.530Z,6.80
2022-12-07T06:24:47.594Z,6.60
2022-12-07T06:27:15.671Z,6.27
2022-12-07T06:29:43.728Z,6.30
2022-12-07T06:32:12.653Z,6.40
2022-12-07T06:34:42.026Z,6.03
2022-12-07T06:37:10.183Z,6.23
2022-12-07T06:39:38.243Z,7.00
2022-12-07T06:42:06.423Z,6.67
2022-12-07T06:44:34.457Z,6.43
2022-12-07T06:47:32.023Z,5.87
2022-12-07T06:49:52.470Z,6.40
2022-12-07T06:52:20.478Z,5.60
2022-12-07T06:54:48.520Z,5.40
2022-12-07T06:57:16.553Z,5.23
2022-12-07T06:59:44.773Z,5.60
2022-12-07T07:02:12.875Z,5.10
2022-12-07T07:04:40.967Z,5.10
2022-12-07T07:07:10.349Z,5.30
2022-12-07T07:09:38.535Z,5.53
2022-12-07T07:12:06.670Z,5.67
2022-12-07T07:14:34.761Z,5.00
2022-12-07T07:17:02.811Z,5.33
2022-12-07T07:19:30.849Z,5.60
2022-12-07T07:21:58.886Z,6.10
2022-12-07T07:24:28.266Z,5.60
2022-12-07T07:26:56.243Z,4.93
2022-12-07T07:29:24.371Z,5.33
2022-12-07T07:31:52.388Z,4.80
2022-12-07T07:34:20.520Z,6.10
2022-12-07T07:36:48.585Z,5.40
2022-12-07T07:39:16.601Z,5.67
2022-12-07T07:41:45.951Z,5.20
2022-12-07T07:44:14.453Z,5.00
2022-12-07T07:46:42.443Z,5.30
2022-12-07T07:49:12.047Z,4.87
2022-12-07T07:51:40.110Z,5.73
2022-12-07T07:54:08.166Z,4.57
2022-12-07T07:56:36.242Z,6.27
2022-12-07T07:59:05.591Z,6.37
2022-12-07T08:01:33.708Z,5.87
2022-12-07T08:04:01.926Z,6.73
2022-12-07T08:06:32.657Z,5.67
2022-12-07T08:09:00.904Z,7.07
2022-12-07T08:11:28.947Z,4.77
2022-12-07T08:13:57.084Z,4.80
2022-12-07T08:16:26.533Z,4.80
2022-12-07T08:18:54.622Z,4.67
2022-12-07T08:21:22.663Z,5.10
2022-12-07T08:23:50.677Z,5.50
2022-12-07T08:26:19.043Z,4.67
2022-12-07T08:28:47.139Z,5.10
2022-12-07T08:31:17.948Z,3.53
2022-12-07T08:33:49.123Z,4.30
2022-12-07T08:36:17.870Z,5.87
2022-12-07T08:39:07.947Z,5.07
2022-12-07T08:41:34.325Z,3.83
2022-12-07T08:44:02.446Z,4.30
2022-12-07T08:46:35.564Z,4.43
2022-12-07T08:49:09.309Z,3.50
2022-12-07T08:51:37.673Z,4.17
2022-12-07T08:54:09.681Z,3.30
2022-12-07T08:56:37.948Z,3.03
2022-12-07T08:59:07.265Z,3.10
2022-12-07T09:01:35.632Z,3.70
2022-12-07T09:04:05.045Z,3.77
2022-12-07T09:06:33.230Z,3.07
2022-12-07T09:09:03.156Z,3.40
2022-12-07T09:11:31.354Z,3.33
2022-12-07T09:13:59.374Z,3.13
2022-12-07T09:16:27.494Z,3.40
2022-12-07T09:18:55.832Z,5.17
2022-12-07T09:21:25.214Z,4.13
2022-12-07T09:23:53.381Z,3.47
2022-12-07T09:26:21.456Z,3.60
2022-12-07T09:28:49.542Z,3.40
2022-12-07T09:31:25.892Z,3.27
2022-12-07T09:33:57.592Z,3.60
2022-12-07T09:36:28.202Z,2.93
2022-12-07T09:38:56.493Z,3.53
2022-12-07T09:41:26.656Z,3.13
2022-12-07T09:43:58.494Z,3.13
2022-12-07T09:46:26.988Z,3.30
2022-12-07T09:48:55.000Z,3.63
2022-12-07T09:51:25.783Z,2.90
2022-12-07T09:53:58.291Z,3.33
2022-12-07T09:56:26.668Z,3.57
2022-12-07T09:59:01.252Z,3.60
2022-12-07T10:01:32.250Z,3.83
2022-12-07T10:04:10.595Z,4.13
2022-12-07T10:06:38.555Z,3.80
2022-12-07T10:09:13.158Z,2.87
2022-12-07T10:12:00.583Z,3.50
2022-12-07T10:14:58.807Z,3.03
2022-12-07T10:17:33.019Z,2.20
2022-12-07T10:20:25.294Z,2.70
2022-12-07T10:22:59.463Z,3.00
2022-12-07T10:25:32.939Z,3.63
2022-12-07T10:28:03.353Z,2.60
2022-12-07T10:30:32.435Z,2.53
2022-12-07T10:33:00.669Z,3.23
2022-12-07T10:35:30.022Z,2.50
2022-12-07T10:38:00.112Z,2.50
2022-12-07T10:40:34.151Z,2.77
2022-12-07T10:43:07.931Z,2.83
2022-12-07T10:46:02.625Z,3.40
2022-12-07T10:48:40.460Z,2.70
2022-12-07T10:51:18.035Z,2.90
2022-12-07T10:54:03.069Z,3.07
2022-12-07T10:56:57.885Z,2.67
2022-12-07T10:59:47.893Z,3.00
2022-12-07T11:02:33.415Z,2.80
2022-12-07T11:05:16.834Z,2.63
2022-12-07T11:07:57.114Z,2.40
2022-12-07T11:10:30.414Z,3.10
2022-12-07T11:13:18.233Z,2.60
2022-12-07T11:16:04.213Z,3.30
2022-12-07T11:18:42.240Z,2.90
2022-12-07T11:21:14.847Z,3.03
2022-12-07T11:23:51.424Z,3.17
2022-12-07T11:26:28.673Z,3.67
2022-12-07T11:29:12.044Z,2.60
2022-12-07T11:31:55.154Z,2.57
2022-12-07T11:34:35.289Z,2.50
2022-12-07T11:37:06.035Z,2.30
2022-12-07T11:39:38.976Z,2.27
2022-12-07T11:42:13.974Z,2.40
2022-12-07T11:44:54.356Z,2.27
2022-12-07T11:47:30.143Z,3.00
2022-12-07T11:50:07.846Z,2.23
2022-12-07T11:52:46.991Z,2.03
2022-12-07T11:55:23.577Z,1.73
2022-12-07T11:57:58.635Z,2.67
2022-12-07T12:00:28.019Z,2.63
2022-12-07T12:03:04.138Z,2.73
2022-12-07T12:05:32.364Z,3.43
2022-12-07T12:11:02.726Z,4.10
2022-12-07T12:17:41.325Z,3.77
2022-12-07T12:20:21.496Z,3.43
2022-12-07T12:22:55.761Z,3.90
2022-12-07T12:25:26.873Z,3.50
2022-12-07T12:27:57.459Z,4.43
2022-12-07T12:30:34.850Z,4.80
2022-12-07T12:33:15.386Z,4.57
2022-12-07T12:35:43.727Z,4.47
2022-12-07T12:38:35.382Z,4.70
2022-12-07T12:41:04.440Z,3.50
2022-12-07T12:43:53.851Z,3.80
2022-12-07T12:46:53.430Z,3.10
2022-12-07T12:50:06.487Z,3.40
2022-12-07T12:52:59.290Z,4.10
2022-12-07T12:56:12.948Z,4.50
2022-12-07T12:58:44.463Z,4.80
2022-12-07T13:01:40.680Z,3.90
2022-12-07T13:04:26.133Z,4.30
2022-12-07T13:06:55.112Z,3.97
2022-12-07T13:09:27.768Z,3.50
2022-12-07T13:12:03.019Z,4.73
2022-12-07T13:15:01.501Z,4.37
2022-12-07T13:18:01.611Z,4.37
2022-12-07T13:20:52.565Z,4.03
2022-12-07T13:23:23.474Z,3.63
2022-12-07T13:26:01.665Z,3.80
2022-12-07T13:28:37.058Z,3.77
2022-12-07T13:31:31.701Z,3.67
2022-12-07T13:33:59.993Z,3.03
2022-12-07T13:36:29.895Z,3.90
2022-12-07T13:38:59.887Z,3.50
2022-12-07T13:41:30.970Z,2.63
2022-12-07T13:44:04.757Z,2.67
2022-12-07T13:46:46.752Z,2.93
2022-12-07T13:49:20.885Z,2.57
2022-12-07T13:51:49.506Z,3.43
2022-12-07T13:54:18.018Z,2.63
2022-12-07T13:56:51.894Z,3.03
2022-12-07T13:59:22.446Z,3.37
2022-12-07T14:01:57.095Z,3.13
2022-12-07T14:04:49.376Z,3.00
2022-12-07T14:07:35.691Z,3.30
2022-12-07T14:10:27.949Z,3.20
2022-12-07T14:12:59.241Z,3.60
2022-12-07T14:15:46.229Z,3.57
2022-12-07T14:21:29.481Z,4.10
2022-12-07T14:24:24.904Z,4.70
2022-12-07T14:26:54.519Z,3.80
2022-12-07T14:29:33.696Z,3.80
2022-12-07T14:32:20.521Z,3.43
2022-12-07T14:35:00.748Z,3.50
2022-12-07T14:37:31.031Z,3.20
2022-12-07T14:39:59.386Z,4.00
2022-12-07T14:42:31.841Z,4.10
2022-12-07T14:45:01.648Z,3.40
2022-12-07T14:50:19.683Z,4.30
2022-12-07T14:55:38.693Z,3.87
2022-12-07T14:58:06.708Z,4.87
2022-12-07T15:00:36.103Z,4.20
2022-12-07T15:03:04.161Z,5.23
2022-12-07T15:05:32.375Z,4.43
2022-12-07T15:08:00.461Z,5.30
2022-12-07T15:10:32.599Z,4.63
2022-12-07T15:13:21.427Z,4.40
2022-12-07T15:15:52.557Z,4.20
2022-12-07T15:18:21.713Z,4.00
2022-12-07T15:20:50.124Z,4.30
2022-12-07T15:23:18.143Z,3.97
2022-12-07T15:25:47.774Z,4.47
2022-12-07T15:28:16.431Z,4.17
2022-12-07T15:30:45.646Z,4.23
2022-12-07T15:33:15.967Z,3.23
2022-12-07T15:35:45.566Z,4.60
2022-12-07T15:38:13.992Z,4.00
2022-12-07T15:40:42.212Z,4.83
2022-12-07T15:43:31.391Z,3.60
2022-12-07T15:45:58.584Z,3.93
2022-12-07T15:48:29.401Z,4.70
2022-12-07T15:51:04.293Z,4.30
2022-12-07T15:53:32.871Z,4.30
2022-12-07T15:56:03.194Z,5.20
2022-12-07T15:58:32.973Z,5.10
2022-12-07T16:01:01.078Z,4.90
2022-12-07T16:03:31.045Z,5.40
2022-12-07T16:05:59.617Z,5.40
2022-12-07T16:08:36.243Z,6.00
2022-12-07T16:11:07.306Z,7.27
2022-12-07T16:13:36.207Z,6.17
2022-12-07T16:16:05.980Z,6.30
2022-12-07T16:18:35.776Z,5.97
2022-12-07T16:21:05.395Z,5.77
2022-12-07T16:23:33.661Z,6.23
2022-12-07T16:26:09.157Z,6.80
2022-12-07T16:28:37.670Z,6.27
2022-12-07T16:31:07.999Z,7.23
2022-12-07T16:33:39.656Z,5.77
2022-12-07T16:36:09.530Z,7.23
2022-12-07T16:38:38.804Z,6.30
2022-12-07T16:41:07.847Z,6.40
2022-12-07T16:43:36.510Z,7.93
2022-12-07T16:46:05.140Z,7.27
2022-12-07T16:48:33.406Z,7.53
2022-12-07T16:51:05.625Z,7.00
2022-12-07T16:53:33.650Z,7.60
2022-12-07T16:56:01.973Z,7.60
2022-12-07T16:58:30.528Z,8.57
2022-12-07T17:00:58.543Z,7.73
2022-12-07T17:03:26.577Z,7.73
2022-12-07T17:05:54.639Z,8.00
2022-12-07T17:08:24.042Z,8.63
2022-12-07T17:10:52.107Z,7.80
2022-12-07T17:13:37.772Z,9.07
2022-12-07T17:16:07.800Z,9.40
2022-12-07T17:18:37.569Z,8.93
2022-12-07T17:21:07.689Z,8.40
2022-12-07T17:23:38.064Z,8.70
2022-12-07T17:26:08.107Z,9.00
2022-12-07T17:28:36.683Z,7.53
2022-12-07T17:31:08.383Z,8.33
2022-12-07T17:33:36.848Z,8.03
2022-12-07T17:36:14.316Z,7.60
2022-12-07T17:38:44.306Z,8.40
2022-12-07T17:41:13.573Z,7.50
2022-12-07T17:43:46.955Z,8.10
2022-12-07T17:46:15.322Z,8.60
2022-12-07T17:48:43.502Z,9.30
2022-12-07T17:51:28.961Z,7.70
2022-12-07T17:54:00.522Z,8.73
2022-12-07T17:56:29.497Z,9.40
2022-12-07T17:58:57.794Z,8.60
2022-12-07T18:01:29.844Z,7.40
2022-12-07T18:04:01.058Z,9.07
2022-12-07T18:06:29.144Z,7.70
2022-12-07T18:08:59.055Z,7.43
2022-12-07T18:11:27.676Z,7.33
2022-12-07T18:13:58.580Z,8.33
2022-12-07T18:16:28.343Z,7.70
2022-12-07T18:18:59.842Z,7.47
2022-12-07T18:21:35.629Z,7.10
2022-12-07T18:24:06.156Z,7.00
2022-12-07T18:26:38.489Z,8.60
2022-12-07T18:29:11.620Z,8.00
2022-12-07T18:31:39.761Z,8.90
2022-12-07T18:34:12.239Z,7.07
2022-12-07T18:36:42.226Z,9.10
2022-12-07T18:39:11.727Z,8.80
2022-12-07T18:41:40.434Z,8.47
2022-12-07T18:44:09.119Z,8.03
2022-12-07T18:46:38.329Z,8.20
2022-12-07T18:49:06.339Z,8.10
2022-12-07T18:51:34.393Z,7.37
2022-12-07T18:54:02.462Z,8.80
2022-12-07T18:56:32.385Z,8.60
2022-12-07T18:59:20.008Z,8.27
2022-12-07T19:01:49.957Z,8.57
2022-12-07T19:04:20.552Z,7.93
2022-12-07T19:06:49.940Z,7.40
2022-12-07T19:09:18.827Z,8.43
2022-12-07T19:11:51.882Z,6.60
2022-12-07T19:14:24.057Z,8.27
2022-12-07T19:16:53.534Z,7.57
2022-12-07T19:19:25.285Z,8.47
2022-12-07T19:21:54.042Z,7.37
2022-12-07T19:24:23.883Z,6.97
2022-12-07T19:26:53.767Z,6.40
2022-12-07T19:29:22.159Z,7.17
2022-12-07T19:31:50.695Z,6.57
2022-12-07T19:34:19.033Z,6.17
2022-12-07T19:36:47.991Z,7.80
2022-12-07T19:39:16.651Z,6.90
2022-12-07T19:41:48.042Z,8.93
2022-12-07T19:44:18.845Z,7.60
2022-12-07T19:46:49.823Z,8.43
2022-12-07T19:49:19.085Z,7.77
2022-12-07T19:51:49.756Z,7.40
2022-12-07T19:54:19.381Z,7.47
2022-12-07T19:56:48.527Z,7.53
2022-12-07T19:59:19.831Z,7.10
2022-12-07T20:01:48.999Z,7.50
2022-12-07T20:04:19.733Z,7.80
2022-12-07T20:06:49.227Z,7.70
2022-12-07T20:09:17.401Z,7.87
2022-12-07T20:12:04.325Z,6.17
2022-12-07T20:14:33.922Z,8.00
2022-12-07T20:17:02.265Z,6.93
2022-12-07T20:19:30.391Z,8.80
2022-12-07T20:21:58.617Z,7.40
2022-12-07T20:24:27.541Z,6.63
2022-12-07T20:26:56.166Z,6.93
2022-12-07T20:29:25.959Z,7.33
2022-12-07T20:31:55.991Z,7.00
2022-12-07T20:34:25.291Z,6.27
2022-12-07T20:36:53.815Z,6.70
2022-12-07T20:39:23.514Z,6.77
2022-12-07T20:42:09.660Z,6.80
2022-12-07T20:44:37.766Z,7.27
2022-12-07T20:47:08.141Z,6.23
2022-12-07T20:49:36.467Z,6.33
2022-12-07T20:52:05.336Z,6.77
2022-12-07T20:54:33.465Z,6.63
2022-12-07T20:57:01.584Z,6.00
2022-12-07T20:59:29.807Z,5.50
2022-12-07T21:01:57.957Z,6.60
2022-12-07T21:04:27.499Z,6.60
2022-12-07T21:06:55.567Z,7.00
2022-12-07T21:09:26.911Z,11.03
2022-12-07T21:11:56.193Z,7.43
2022-12-07T21:14:24.539Z,6.27
2022-12-07T21:16:52.714Z,7.43
2022-12-07T21:19:20.883Z,6.97
2022-12-07T21:21:50.826Z,6.10
2022-12-07T21:24:19.271Z,6.30
2022-12-07T21:26:47.410Z,7.40
2022-12-07T21:29:15.440Z,6.90
2022-12-07T21:31:43.612Z,7.03
2022-12-07T21:34:11.627Z,7.33
2022-12-07T21:36:39.829Z,7.07
2022-12-07T21:39:09.484Z,6.37
2022-12-07T21:41:37.468Z,6.17
2022-12-07T21:44:08.133Z,6.60
2022-12-07T21:46:36.228Z,6.93
2022-12-07T21:49:06.754Z,6.97
2022-12-07T21:51:35.472Z,7.53
2022-12-07T21:54:04.881Z,8.00
2022-12-07T21:56:36.754Z,7.93
2022-12-07T21:59:06.745Z,7.63
2022-12-07T22:01:38.091Z,7.60
2022-12-07T22:04:07.845Z,7.67
2022-12-07T22:06:36.863Z,7.30
2022-12-07T22:09:06.434Z,7.47
2022-12-07T22:11:36.299Z,7.53
2022-12-07T22:14:23.326Z,8.03
2022-12-07T22:16:51.522Z,8.30
2022-12-07T22:19:19.843Z,7.43
2022-12-07T22:21:47.941Z,9.17
2022-12-07T22:24:16.598Z,8.40
2022-12-07T22:26:46.172Z,8.57
2022-12-07T22:29:14.180Z,8.57
2022-12-07T22:31:42.207Z,8.20
2022-12-07T22:34:16.039Z,8.17
2022-12-07T22:36:44.086Z,7.33
2022-12-07T22:39:12.544Z,7.77
2022-12-07T22:41:40.981Z,9.43
2022-12-07T22:44:10.913Z,7.77
2022-12-07T22:46:39.932Z,9.00
2022-12-07T22:49:08.249Z,9.20
2022-12-07T22:51:37.923Z,8.20
2022-12-07T22:54:07.723Z,8.10
2022-12-07T22:56:37.922Z,8.73
2022-12-07T22:59:07.432Z,7.90
2022-12-07T23:01:37.257Z,7.70
2022-12-07T23:04:05.528Z,8.53
2022-12-07T23:06:36.270Z,7.60
2022-12-07T23:09:07.581Z,8.30
2022-12-07T23:11:57.145Z,7.03
2022-12-07T23:14:27.926Z,8.40
2022-12-07T23:16:57.310Z,8.43
2022-12-07T23:19:25.314Z,7.80
2022-12-07T23:21:53.379Z,7.53
2022-12-07T23:24:21.461Z,8.00
2022-12-07T23:26:52.386Z,7.70
2022-12-07T23:29:20.382Z,7.60
2022-12-07T23:31:49.747Z,8.17
2022-12-07T23:34:19.331Z,7.90
2022-12-07T23:36:47.508Z,7.10
2022-12-07T23:39:15.517Z,7.33
2022-12-07T23:41:43.562Z,6.73
2022-12-07T23:44:12.441Z,8.10
2022-12-07T23:46:40.730Z,8.30
2022-12-07T23:49:08.936Z,7.27
2022-12-07T23:51:38.267Z,8.67
2022-12-07T23:54:06.478Z,8.30
2022-12-07T23:56:35.324Z,7.67
2022-12-07T23:59:04.084Z,7.77
